Adairsville, Georgia
Current Conditions -  °F | °C
As of 3:12 AM on Monday 24 Nov 2014 (Local Time) from KRMG Reporting Station
Overcast Overcast  
Wind Chill: 59°   Ceiling: 2900
Heat Index: 59°   Visibility: 10mi
Dew Point: 56°   Wind: 7mph
Humidity: 90%   Direction: 180°S
Pressure: 29.7"   Gusts: NA
Location:  34.37°N, 84.93°W
Report Text: KRMG 240812Z AUTO 18006KT 10SM BKN029 OVC034 15/13 A2970 RMK AO2 T01500133 $
Loading
Personal Weather Stations






























Interactive Weather Map New forecast layout! Learn more

10-Day Weather Forecast

Advertisements
Track Severe Weather on mobile